Aérodrome :
LOGIN :

S'inscrire | Disclaimer

   EN    FR    IT 

 










Légende :    VFR   VFR Marginal   IFR   IFR Intensif   IFR Très Intensif
Visi : 
Plafond : 
>= 8 km
>= 3000ft
5 à 8 km
1000 à 3000 ft
1500m à 5 km
500 à 1000 ft
800 à 1500m
200 à 500 ft
< 800m
< 200 ft
Symboles :   Orages  Brouillard  Fortes neiges  Fortes précipitations  Vent > 20 kt
SIGMETs :   Divers  Orages  Givrage  Turbulence  Onde Orograph.  Cendres Volcan.






- Altitude de l'aérodrome : 72 ft
- Code IATA : UDE


EHVK - Volkel Airbase

DERNIER METAR :
  • 252255Z AUTO 15006KT 110V180 0550 FG OVC000 02/02 Q1019 RED

METARs EXPIRÉS :
  • 252225Z AUTO 12003KT 070V170 0500 FG OVC000 01/01 Q1019 RED
  • 252155Z AUTO 12004KT 090V150 0500 FG OVC000 01/01 Q1019 RED
  • 252125Z AUTO 10004KT 070V150 0450 FG OVC000 01/01 Q1020 RED
  • 252055Z AUTO 10004KT 070V140 0450 FG OVC000 01/01 Q1020 RED
  • 252025Z AUTO 12003KT 100V170 0400 FG OVC000 01/01 Q1020 RED
  • 251955Z AUTO 15003KT 090V170 0700 FG OVC001 01/01 Q1020 RED

TAF TAF EHVK
Valide du 25 à 22h jusqu'au 26 à 10h UTC


252130Z 2522/2610 12003KT 0400 FG OVC000
PROB30
TEMPO 2600/2606 1000 OVC002
BECMG 2609/2610 18007KT 2000 BKN003



MET'MAP, la Météo Aéronautique d'un coup d'oeil ! - Copyright ORBIFLY Décembre 2007 - Disclaimer

ORBIFLY MET'MAP TEAM :

Programmation & Développement : Alexandra Zaïnal
Sur une idée originale de : Baudouin d'Aumeries
Assistance à la programmation : Marc-Olivier Méhu
Soutien technique & logistique : Manuel Goepfert

Contact : metmap@orbifly.com




SOURCES & CREDITS :

   NOAA